createdAt,value
2022-07-25T00:00:29.394Z,10.93
2022-07-25T00:05:13.800Z,10.23
2022-07-25T00:09:57.488Z,11.15
2022-07-25T00:14:42.669Z,10.65
2022-07-25T00:19:26.249Z,11.00
2022-07-25T00:24:10.485Z,11.43
2022-07-25T00:28:54.172Z,9.95
2022-07-25T00:33:40.382Z,11.18
2022-07-25T00:38:24.052Z,11.55
2022-07-25T00:43:07.614Z,10.93
2022-07-25T00:47:51.128Z,10.77
2022-07-25T00:52:36.070Z,10.70
2022-07-25T00:57:19.691Z,11.45
2022-07-25T01:02:03.786Z,11.30
2022-07-25T01:06:48.410Z,11.52
2022-07-25T01:11:33.308Z,11.95
2022-07-25T01:16:17.007Z,12.10
2022-07-25T01:21:02.276Z,11.27
2022-07-25T01:25:46.030Z,11.60
2022-07-25T01:30:29.488Z,11.55
2022-07-25T01:35:13.727Z,11.45
2022-07-25T01:39:58.768Z,11.63
2022-07-25T01:44:42.249Z,10.88
2022-07-25T01:49:26.954Z,10.80
2022-07-25T01:54:10.639Z,11.88
2022-07-25T01:58:55.545Z,12.15
2022-07-25T02:03:39.003Z,11.48
2022-07-25T02:08:23.411Z,11.20
2022-07-25T02:13:06.918Z,11.23
2022-07-25T02:18:02.001Z,11.55
2022-07-25T02:22:45.495Z,11.10
2022-07-25T02:27:29.040Z,11.15
2022-07-25T02:32:12.491Z,12.23
2022-07-25T02:36:57.362Z,12.10
2022-07-25T02:41:40.928Z,11.95
2022-07-25T02:46:24.578Z,11.48
2022-07-25T02:51:08.498Z,12.43
2022-07-25T02:55:53.344Z,11.35
2022-07-25T03:00:40.252Z,11.00
2022-07-25T03:05:28.050Z,11.55
2022-07-25T03:10:13.536Z,11.30
2022-07-25T03:14:58.379Z,12.50
2022-07-25T03:19:41.871Z,12.35
2022-07-25T03:24:25.330Z,11.73
2022-07-25T03:29:08.845Z,14.27
2022-07-25T03:33:53.749Z,12.20
2022-07-25T03:38:37.230Z,12.15
2022-07-25T03:43:20.809Z,12.20
2022-07-25T03:48:04.390Z,11.45
2022-07-25T03:52:49.314Z,11.90
2022-07-25T03:57:32.854Z,11.80
2022-07-25T04:02:16.388Z,13.35
2022-07-25T04:06:59.909Z,11.60
2022-07-25T04:11:45.050Z,12.02
2022-07-25T04:16:28.543Z,12.23
2022-07-25T04:21:13.183Z,12.30
2022-07-25T04:25:56.849Z,12.95
2022-07-25T04:30:41.846Z,11.90
2022-07-25T04:35:25.356Z,13.20
2022-07-25T04:40:10.840Z,13.13
2022-07-25T04:44:54.589Z,11.02
2022-07-25T04:49:39.600Z,11.98
2022-07-25T04:54:23.114Z,12.25
2022-07-25T04:59:07.241Z,12.07
2022-07-25T05:03:50.940Z,12.13
2022-07-25T05:08:35.840Z,12.73
2022-07-25T05:13:19.356Z,11.65
2022-07-25T05:18:02.980Z,10.70
2022-07-25T05:22:46.672Z,10.65
2022-07-25T05:27:31.763Z,10.80
2022-07-25T05:32:15.287Z,10.30
2022-07-25T05:36:58.784Z,11.38
2022-07-25T05:41:42.372Z,10.82
2022-07-25T05:46:27.246Z,11.05
2022-07-25T05:51:10.959Z,11.50
2022-07-25T05:55:54.439Z,12.32
2022-07-25T06:00:39.427Z,11.48
2022-07-25T06:05:24.518Z,12.10
2022-07-25T06:10:08.205Z,11.57
2022-07-25T06:14:51.670Z,10.98
2022-07-25T06:19:35.728Z,10.60
2022-07-25T06:24:20.614Z,10.75
2022-07-25T06:29:04.118Z,9.73
2022-07-25T06:33:47.592Z,10.23
2022-07-25T06:38:31.128Z,10.57
2022-07-25T06:43:16.005Z,10.63
2022-07-25T06:47:59.557Z,9.50
2022-07-25T06:52:43.962Z,9.88
2022-07-25T06:57:27.495Z,9.98
2022-07-25T07:02:12.914Z,9.70
2022-07-25T07:06:56.349Z,9.82
2022-07-25T07:11:39.983Z,9.93
2022-07-25T07:16:23.607Z,9.35
2022-07-25T07:21:08.900Z,10.13
2022-07-25T07:25:59.813Z,11.20
2022-07-25T07:31:14.734Z,10.90
2022-07-25T07:35:47.138Z,8.80
2022-07-25T07:40:32.123Z,9.95
2022-07-25T07:45:17.608Z,10.20
2022-07-25T07:50:01.106Z,10.18
2022-07-25T07:55:02.236Z,10.43
2022-07-25T07:59:47.153Z,10.23
2022-07-25T08:04:30.719Z,9.85
2022-07-25T08:09:14.271Z,10.00
2022-07-25T08:13:57.862Z,10.40
2022-07-25T08:18:42.786Z,10.60
2022-07-25T08:23:27.974Z,10.02
2022-07-25T08:28:12.701Z,9.93
2022-07-25T08:32:57.788Z,9.95
2022-07-25T08:37:42.721Z,9.25
2022-07-25T08:42:26.218Z,9.82
2022-07-25T08:47:10.828Z,9.80
2022-07-25T08:51:57.183Z,9.90
2022-07-25T08:56:42.111Z,10.05
2022-07-25T09:01:25.709Z,9.75
2022-07-25T09:06:17.616Z,10.30
2022-07-25T09:11:01.243Z,10.55
2022-07-25T09:15:49.654Z,9.98
2022-07-25T09:20:42.051Z,10.93
2022-07-25T09:25:29.994Z,10.45
2022-07-25T09:30:15.352Z,9.98
2022-07-25T09:35:00.238Z,10.40
2022-07-25T09:39:47.088Z,9.75
2022-07-25T09:44:31.782Z,9.32
2022-07-25T09:49:15.450Z,8.90
2022-07-25T09:54:00.978Z,9.80
2022-07-25T09:58:44.442Z,9.38
2022-07-25T10:03:35.890Z,9.75
2022-07-25T10:08:21.824Z,10.00
2022-07-25T10:13:11.380Z,9.98
2022-07-25T10:18:04.981Z,9.57
2022-07-25T10:22:57.333Z,14.70
2022-07-25T10:27:48.870Z,9.30
2022-07-25T10:32:35.888Z,8.85
2022-07-25T10:37:21.339Z,9.07
2022-07-25T10:42:07.459Z,10.82
2022-07-25T10:46:51.042Z,8.75
2022-07-25T10:51:41.548Z,7.05
2022-07-25T10:56:28.539Z,6.90
2022-07-25T11:01:14.378Z,7.95
2022-07-25T11:05:57.964Z,7.78
2022-07-25T11:10:43.050Z,8.13
2022-07-25T11:15:26.666Z,8.45
2022-07-25T11:20:13.027Z,8.68
2022-07-25T11:24:58.216Z,8.70
2022-07-25T11:29:43.214Z,7.97
2022-07-25T11:34:29.508Z,8.00
2022-07-25T11:39:17.014Z,7.70
2022-07-25T11:44:03.174Z,8.27
2022-07-25T11:48:48.822Z,8.32
2022-07-25T11:53:42.161Z,9.00
2022-07-25T11:58:26.126Z,8.48
2022-07-25T12:03:14.131Z,8.00
2022-07-25T12:08:13.305Z,7.97
2022-07-25T12:12:57.833Z,7.90
2022-07-25T12:17:41.544Z,8.60
2022-07-25T12:22:26.926Z,8.40
2022-07-25T12:27:12.203Z,8.38
2022-07-25T12:31:55.739Z,15.73
2022-07-25T12:36:44.292Z,8.02
2022-07-25T12:41:28.071Z,7.40
2022-07-25T12:46:13.157Z,8.50
2022-07-25T12:50:56.852Z,8.60
2022-07-25T12:55:40.541Z,8.13
2022-07-25T13:00:25.283Z,8.57
2022-07-25T13:05:10.895Z,8.40
2022-07-25T13:09:54.606Z,7.72
2022-07-25T13:14:38.802Z,8.45
2022-07-25T13:19:22.413Z,7.88
2022-07-25T13:24:08.553Z,8.05
2022-07-25T13:28:57.907Z,7.10
2022-07-25T13:33:43.320Z,6.82
2022-07-25T13:38:27.120Z,7.40
2022-07-25T13:43:14.566Z,7.20
2022-07-25T13:48:19.044Z,7.65
2022-07-25T13:53:04.171Z,6.90
2022-07-25T13:57:47.835Z,7.15
2022-07-25T14:02:35.680Z,6.22
2022-07-25T14:07:19.273Z,7.15
2022-07-25T14:12:02.920Z,5.80
2022-07-25T14:16:46.633Z,5.60
2022-07-25T14:21:52.581Z,5.10
2022-07-25T14:26:36.643Z,5.82
2022-07-25T14:31:21.457Z,5.28
2022-07-25T14:36:05.374Z,5.25
2022-07-25T14:40:53.546Z,5.22
2022-07-25T14:45:37.731Z,6.75
2022-07-25T14:50:21.603Z,6.75
2022-07-25T14:55:06.196Z,6.55
2022-07-25T14:59:51.177Z,6.63
2022-07-25T15:04:35.088Z,6.78
2022-07-25T15:09:18.734Z,5.97
2022-07-25T15:14:02.228Z,5.95
2022-07-25T15:19:14.432Z,5.10
2022-07-25T15:23:52.357Z,5.18
2022-07-25T15:28:38.720Z,6.30
2022-07-25T15:33:22.352Z,5.68
2022-07-25T15:38:07.240Z,5.50
2022-07-25T15:42:51.642Z,6.35
2022-07-25T15:47:35.128Z,6.95
2022-07-25T15:52:18.906Z,8.15
2022-07-25T15:57:04.019Z,6.40
2022-07-25T16:01:47.675Z,6.78
2022-07-25T16:06:31.194Z,6.32
2022-07-25T16:11:14.809Z,7.18
2022-07-25T16:15:59.801Z,7.07
2022-07-25T16:20:43.359Z,6.47
2022-07-25T16:25:28.590Z,6.72
2022-07-25T16:30:13.125Z,5.47
2022-07-25T16:34:58.240Z,6.10
2022-07-25T16:39:41.942Z,5.43
2022-07-25T16:44:25.509Z,6.15
2022-07-25T16:49:09.428Z,5.38
2022-07-25T16:53:54.561Z,5.80
2022-07-25T16:58:38.167Z,5.65
2022-07-25T17:03:21.974Z,6.85
2022-07-25T17:08:05.903Z,5.57
2022-07-25T17:12:51.073Z,5.78
2022-07-25T17:17:35.678Z,6.55
2022-07-25T17:22:20.447Z,6.03
2022-07-25T17:27:04.645Z,7.03
2022-07-25T17:31:49.406Z,5.50
2022-07-25T17:36:33.045Z,5.43
2022-07-25T17:41:16.575Z,4.97
2022-07-25T17:46:00.399Z,5.57
2022-07-25T17:50:45.854Z,6.38
2022-07-25T17:55:29.746Z,6.10
2022-07-25T18:00:15.905Z,5.47
2022-07-25T18:04:59.636Z,6.05
2022-07-25T18:09:44.937Z,5.70
2022-07-25T18:14:29.419Z,6.45
2022-07-25T18:19:13.116Z,6.00
2022-07-25T18:23:56.872Z,6.07
2022-07-25T18:28:42.150Z,6.75
2022-07-25T18:33:25.906Z,6.32
2022-07-25T18:38:11.708Z,6.30
2022-07-25T18:42:55.686Z,6.03
2022-07-25T18:47:41.641Z,5.45
2022-07-25T18:52:25.689Z,5.90
2022-07-25T18:57:09.469Z,5.53
2022-07-25T19:01:53.136Z,5.15
2022-07-25T19:06:38.431Z,5.25
2022-07-25T19:11:22.091Z,6.53
2022-07-25T19:16:06.085Z,7.22
2022-07-25T19:20:51.118Z,7.15
2022-07-25T19:25:37.347Z,8.10
2022-07-25T19:30:21.749Z,8.23
2022-07-25T19:35:06.777Z,7.97
2022-07-25T19:39:51.671Z,7.55
2022-07-25T19:44:36.976Z,7.55
2022-07-25T19:49:20.994Z,7.15
2022-07-25T19:54:05.752Z,5.70
2022-07-25T19:58:49.611Z,6.30
2022-07-25T20:03:34.574Z,5.93
2022-07-25T20:08:19.294Z,6.47
2022-07-25T20:13:02.855Z,6.18
2022-07-25T20:17:46.486Z,5.43
2022-07-25T20:22:31.743Z,5.50
2022-07-25T20:27:15.302Z,5.18
2022-07-25T20:31:59.233Z,5.30
2022-07-25T20:36:42.957Z,5.60
2022-07-25T20:41:28.087Z,5.10
2022-07-25T20:46:12.641Z,4.85
2022-07-25T20:50:56.361Z,5.85
2022-07-25T20:55:40.246Z,5.78
2022-07-25T21:00:27.766Z,4.85
2022-07-25T21:05:11.821Z,4.53
2022-07-25T21:09:59.947Z,4.85
2022-07-25T21:15:03.234Z,4.63
2022-07-25T21:20:14.761Z,4.93
2022-07-25T21:24:58.874Z,4.13
2022-07-25T21:29:43.035Z,4.95
2022-07-25T21:34:27.172Z,4.50
2022-07-25T21:39:13.481Z,4.78
2022-07-25T21:43:58.474Z,4.07
2022-07-25T21:48:59.556Z,4.75
2022-07-25T21:53:43.437Z,4.35
2022-07-25T21:58:28.771Z,4.18
2022-07-25T22:03:12.483Z,4.30
2022-07-25T22:07:56.052Z,3.67
2022-07-25T22:12:39.865Z,4.05
2022-07-25T22:17:24.832Z,4.15
2022-07-25T22:22:08.534Z,4.20
2022-07-25T22:26:52.034Z,4.40
2022-07-25T22:31:35.625Z,3.88
2022-07-25T22:36:20.627Z,4.22
2022-07-25T22:41:04.175Z,4.05
2022-07-25T22:45:48.181Z,4.03
2022-07-25T22:50:31.893Z,4.63
2022-07-25T22:55:17.033Z,4.78
2022-07-25T23:00:00.688Z,4.45
2022-07-25T23:04:44.214Z,4.45
2022-07-25T23:09:36.057Z,4.75
2022-07-25T23:14:21.473Z,5.13
2022-07-25T23:19:05.218Z,3.80
2022-07-25T23:23:48.925Z,4.70
2022-07-25T23:28:32.511Z,4.10
2022-07-25T23:33:17.411Z,4.53
2022-07-25T23:38:08.697Z,4.72
2022-07-25T23:42:52.893Z,4.80
2022-07-25T23:47:36.849Z,4.70
2022-07-25T23:52:24.764Z,4.55
2022-07-25T23:57:08.822Z,5.13
